createdAt,value
2018-09-19T00:00:53.564Z,19.80
2018-09-19T00:03:22.395Z,19.70
2018-09-19T00:05:51.151Z,19.80
2018-09-19T00:08:19.930Z,19.80
2018-09-19T00:10:48.733Z,19.80
2018-09-19T00:13:17.550Z,19.80
2018-09-19T00:15:46.380Z,19.70
2018-09-19T00:18:15.155Z,19.80
2018-09-19T00:20:43.940Z,19.70
2018-09-19T00:23:12.772Z,19.70
2018-09-19T00:25:41.587Z,19.70
2018-09-19T00:28:10.405Z,19.70
2018-09-19T00:30:39.195Z,19.60
2018-09-19T00:33:07.987Z,19.60
2018-09-19T00:35:36.824Z,19.60
2018-09-19T00:38:05.653Z,19.50
2018-09-19T00:40:34.542Z,19.40
2018-09-19T00:43:03.343Z,19.40
2018-09-19T00:45:32.161Z,19.40
2018-09-19T00:48:00.989Z,19.50
2018-09-19T00:50:29.863Z,19.30
2018-09-19T00:52:58.688Z,19.20
2018-09-19T00:55:27.464Z,19.20
2018-09-19T00:57:56.284Z,19.30
2018-09-19T01:00:25.115Z,19.30
2018-09-19T01:02:53.945Z,19.10
2018-09-19T01:05:22.764Z,18.90
2018-09-19T01:07:51.652Z,18.80
2018-09-19T01:10:20.457Z,18.90
2018-09-19T01:12:49.324Z,18.90
2018-09-19T01:15:18.147Z,18.70
2018-09-19T01:17:46.973Z,18.70
2018-09-19T01:20:16.183Z,18.70
2018-09-19T01:22:44.969Z,18.70
2018-09-19T01:25:13.816Z,18.70
2018-09-19T01:27:42.602Z,18.70
2018-09-19T01:30:11.435Z,18.80
2018-09-19T01:32:40.219Z,18.90
2018-09-19T01:35:09.000Z,18.90
2018-09-19T01:37:37.854Z,18.90
2018-09-19T01:40:06.791Z,18.90
2018-09-19T01:42:35.617Z,18.80
2018-09-19T01:45:04.528Z,18.60
2018-09-19T01:47:33.319Z,18.60
2018-09-19T01:50:02.129Z,18.40
2018-09-19T01:52:30.898Z,18.40
2018-09-19T01:54:59.729Z,18.40
2018-09-19T01:57:28.482Z,18.40
2018-09-19T01:59:57.282Z,18.50
2018-09-19T02:02:26.125Z,18.50
2018-09-19T02:04:54.975Z,18.50
2018-09-19T02:07:23.817Z,18.60
2018-09-19T02:09:52.632Z,18.50
2018-09-19T02:12:21.398Z,18.50
2018-09-19T02:14:50.203Z,18.50
2018-09-19T02:17:19.003Z,18.50
2018-09-19T02:19:47.825Z,18.40
2018-09-19T02:22:16.623Z,18.40
2018-09-19T02:24:45.428Z,18.40
2018-09-19T02:27:14.225Z,18.40
2018-09-19T02:29:43.024Z,18.50
2018-09-19T02:32:11.865Z,18.50
2018-09-19T02:34:40.662Z,18.50
2018-09-19T02:37:09.460Z,18.40
2018-09-19T02:39:38.268Z,18.40
2018-09-19T02:42:07.073Z,18.50
2018-09-19T02:44:35.889Z,18.40
2018-09-19T02:47:04.676Z,18.40
2018-09-19T02:49:33.460Z,18.50
2018-09-19T02:52:02.264Z,18.50
2018-09-19T02:54:31.255Z,18.50
2018-09-19T02:57:00.065Z,18.40
2018-09-19T02:59:28.850Z,18.30
2018-09-19T03:01:57.635Z,18.20
2018-09-19T03:04:26.383Z,18.00
2018-09-19T03:06:55.185Z,18.00
2018-09-19T03:09:24.014Z,18.00
2018-09-19T03:11:52.785Z,17.90
2018-09-19T03:14:21.589Z,17.90
2018-09-19T03:19:19.231Z,17.80
2018-09-19T03:21:48.061Z,17.90
2018-09-19T03:24:16.903Z,17.90
2018-09-19T03:26:45.655Z,17.90
2018-09-19T03:29:14.433Z,18.00
2018-09-19T03:31:43.204Z,17.90
2018-09-19T03:34:12.078Z,17.90
2018-09-19T03:36:40.850Z,17.90
2018-09-19T03:39:10.627Z,17.90
2018-09-19T03:41:45.760Z,17.90
2018-09-19T03:44:14.519Z,17.90
2018-09-19T03:46:43.343Z,18.00
2018-09-19T03:49:12.133Z,17.90
2018-09-19T03:51:40.923Z,17.90
2018-09-19T03:54:10.092Z,17.90
2018-09-19T03:56:38.913Z,17.90
2018-09-19T03:59:07.801Z,17.90
2018-09-19T04:01:36.572Z,17.90
2018-09-19T04:04:05.392Z,17.90
2018-09-19T04:06:34.239Z,17.80
2018-09-19T04:09:03.233Z,17.80
2018-09-19T04:11:32.060Z,17.70
2018-09-19T04:14:00.854Z,17.60
2018-09-19T04:16:29.647Z,17.60
2018-09-19T04:18:58.447Z,17.40
2018-09-19T04:21:27.207Z,17.20
2018-09-19T04:23:55.992Z,17.10
2018-09-19T04:26:24.777Z,17.00
2018-09-19T04:28:53.562Z,16.90
2018-09-19T04:31:22.374Z,16.90
2018-09-19T04:33:51.187Z,17.10
2018-09-19T04:36:19.989Z,17.20
2018-09-19T04:38:48.796Z,17.20
2018-09-19T04:41:17.585Z,17.30
2018-09-19T04:43:46.681Z,17.40
2018-09-19T04:46:15.479Z,17.30
2018-09-19T04:48:44.292Z,17.30
2018-09-19T04:51:13.070Z,17.30
2018-09-19T04:53:41.858Z,17.20
2018-09-19T04:56:10.657Z,17.00
2018-09-19T04:58:39.439Z,17.00
2018-09-19T05:01:08.265Z,16.90
2018-09-19T05:03:37.182Z,16.80
2018-09-19T05:06:05.975Z,16.80
2018-09-19T05:08:34.780Z,16.70
2018-09-19T05:11:03.581Z,16.70
2018-09-19T05:13:32.466Z,16.80
2018-09-19T05:16:01.235Z,16.90
2018-09-19T05:18:30.038Z,17.10
2018-09-19T05:20:58.856Z,17.10
2018-09-19T05:23:27.643Z,17.20
2018-09-19T05:25:56.484Z,17.20
2018-09-19T05:28:25.304Z,17.20
2018-09-19T05:30:54.379Z,17.20
2018-09-19T05:33:23.193Z,17.20
2018-09-19T05:35:52.003Z,17.10
2018-09-19T05:38:20.847Z,17.10
2018-09-19T05:40:49.750Z,17.20
2018-09-19T05:43:18.554Z,17.10
2018-09-19T05:45:47.374Z,16.90
2018-09-19T05:48:16.179Z,17.00
2018-09-19T05:50:44.984Z,17.00
2018-09-19T05:53:13.787Z,17.00
2018-09-19T05:55:42.608Z,17.00
2018-09-19T05:58:11.420Z,17.00
2018-09-19T06:00:40.274Z,17.00
2018-09-19T06:03:09.134Z,17.00
2018-09-19T06:05:38.104Z,17.10
2018-09-19T06:08:06.939Z,17.10
2018-09-19T06:10:36.074Z,17.10
2018-09-19T06:13:04.923Z,17.10
2018-09-19T06:15:33.884Z,17.20
2018-09-19T06:18:02.865Z,17.20
2018-09-19T06:20:32.108Z,17.30
2018-09-19T06:23:01.006Z,17.30
2018-09-19T06:25:29.831Z,17.40
2018-09-19T06:27:58.823Z,17.40
2018-09-19T06:30:28.463Z,17.40
2018-09-19T06:32:57.432Z,17.40
2018-09-19T06:35:26.363Z,17.40
2018-09-19T06:37:55.235Z,17.40
2018-09-19T06:40:24.194Z,17.40
2018-09-19T06:42:53.080Z,17.50
2018-09-19T06:45:21.935Z,17.50
2018-09-19T06:47:50.896Z,17.50
2018-09-19T06:50:19.758Z,17.60
2018-09-19T06:52:48.762Z,17.60
2018-09-19T06:55:17.683Z,17.60
2018-09-19T06:57:46.688Z,17.60
2018-09-19T07:00:15.674Z,17.60
2018-09-19T07:02:44.591Z,17.60
2018-09-19T07:05:13.548Z,17.70
2018-09-19T07:07:42.461Z,17.70
2018-09-19T07:10:11.395Z,17.70
2018-09-19T07:12:40.267Z,17.80
2018-09-19T07:15:09.229Z,17.80
2018-09-19T07:17:38.143Z,17.80
2018-09-19T07:20:07.358Z,17.80
2018-09-19T07:22:36.243Z,17.90
2018-09-19T07:25:05.408Z,17.90
2018-09-19T07:27:34.347Z,17.90
2018-09-19T07:30:03.285Z,17.90
2018-09-19T07:32:32.212Z,18.00
2018-09-19T07:35:01.213Z,18.00
2018-09-19T07:37:30.098Z,18.10
2018-09-19T07:39:59.152Z,18.10
2018-09-19T07:42:28.196Z,18.10
2018-09-19T07:44:57.084Z,18.20
2018-09-19T07:47:26.066Z,18.20
2018-09-19T07:49:55.132Z,18.30
2018-09-19T07:52:24.376Z,18.30
2018-09-19T07:54:53.336Z,18.40
2018-09-19T07:57:22.416Z,18.40
2018-09-19T07:59:51.425Z,18.40
2018-09-19T08:02:20.425Z,18.50
2018-09-19T08:04:49.446Z,18.50
2018-09-19T08:07:18.477Z,18.60
2018-09-19T08:09:47.739Z,18.60
2018-09-19T08:12:16.730Z,18.70
2018-09-19T08:14:45.788Z,18.70
2018-09-19T08:17:14.770Z,18.80
2018-09-19T08:19:43.661Z,18.80
2018-09-19T08:22:12.616Z,18.90
2018-09-19T08:24:41.589Z,18.90
2018-09-19T08:27:10.538Z,19.00
2018-09-19T08:29:39.373Z,19.10
2018-09-19T08:32:08.423Z,19.20
2018-09-19T08:34:37.330Z,19.20
2018-09-19T08:37:06.238Z,19.20
2018-09-19T08:39:35.291Z,19.30
2018-09-19T08:42:04.311Z,19.30
2018-09-19T08:44:33.205Z,19.40
2018-09-19T08:47:02.098Z,19.40
2018-09-19T08:49:31.022Z,19.50
2018-09-19T08:51:59.959Z,19.50
2018-09-19T08:54:28.815Z,19.60
2018-09-19T08:56:57.838Z,19.60
2018-09-19T08:59:26.858Z,19.70
2018-09-19T09:01:55.844Z,19.70
2018-09-19T09:04:24.660Z,19.70
2018-09-19T09:06:53.464Z,19.80
2018-09-19T09:09:22.247Z,19.80
2018-09-19T09:11:51.037Z,19.90
2018-09-19T09:14:19.811Z,20.00
2018-09-19T09:16:48.662Z,20.00
2018-09-19T09:19:17.401Z,20.00
2018-09-19T09:21:46.190Z,20.10
2018-09-19T09:24:14.995Z,20.10
2018-09-19T09:26:43.852Z,20.20
2018-09-19T09:29:12.641Z,20.20
2018-09-19T09:31:41.461Z,20.30
2018-09-19T09:34:10.229Z,20.30
2018-09-19T09:36:39.134Z,20.40
2018-09-19T09:39:08.020Z,20.40
2018-09-19T09:41:36.846Z,20.50
2018-09-19T09:44:05.686Z,20.60
2018-09-19T09:46:34.510Z,20.60
2018-09-19T09:49:03.312Z,20.70
2018-09-19T09:51:32.116Z,20.70
2018-09-19T09:54:00.911Z,20.80
2018-09-19T09:56:29.754Z,20.80
2018-09-19T09:58:58.565Z,20.90
2018-09-19T10:01:27.457Z,20.90
2018-09-19T10:04:00.082Z,21.10
2018-09-19T10:06:34.121Z,21.20
2018-09-19T10:09:07.838Z,21.20
2018-09-19T10:11:40.382Z,21.30
2018-09-19T10:14:14.614Z,21.40
2018-09-19T10:16:47.410Z,21.40
2018-09-19T10:19:16.250Z,21.50
2018-09-19T10:21:52.580Z,21.50
2018-09-19T10:24:25.750Z,21.60
2018-09-19T10:26:59.141Z,21.70
2018-09-19T10:29:33.433Z,21.80
2018-09-19T10:32:04.237Z,21.90
2018-09-19T10:34:37.105Z,22.00
2018-09-19T10:37:10.953Z,22.10
2018-09-19T10:39:46.497Z,22.20
2018-09-19T10:42:19.962Z,22.30
2018-09-19T10:44:53.839Z,22.40
2018-09-19T10:47:28.332Z,22.40
2018-09-19T10:49:59.356Z,22.60
2018-09-19T10:52:31.105Z,22.70
2018-09-19T10:55:03.691Z,22.80
2018-09-19T10:57:36.605Z,22.90
2018-09-19T11:00:09.932Z,23.10
2018-09-19T11:02:39.000Z,23.20
2018-09-19T11:05:07.833Z,23.30
2018-09-19T11:07:36.699Z,23.40
2018-09-19T11:10:06.082Z,23.50
2018-09-19T11:12:34.931Z,23.60
2018-09-19T11:15:03.717Z,23.70
2018-09-19T11:17:32.543Z,23.80
2018-09-19T11:20:14.047Z,23.90
2018-09-19T11:22:47.511Z,24.10
2018-09-19T11:25:26.898Z,24.20
2018-09-19T11:28:03.167Z,24.20
2018-09-19T11:30:34.469Z,24.30
2018-09-19T11:33:05.420Z,24.50
2018-09-19T11:35:34.233Z,24.60
2018-09-19T11:38:04.707Z,24.70
2018-09-19T11:40:34.960Z,24.80
2018-09-19T11:43:05.603Z,25.00
2018-09-19T11:45:36.574Z,25.00
2018-09-19T11:48:07.653Z,25.10
2018-09-19T11:50:37.382Z,25.20
2018-09-19T11:53:10.415Z,25.40
2018-09-19T11:55:39.203Z,25.40
2018-09-19T11:58:08.062Z,25.50
2018-09-19T12:00:36.922Z,25.70
2018-09-19T12:03:05.730Z,25.80
2018-09-19T12:05:34.551Z,25.90
2018-09-19T12:08:03.329Z,26.00
2018-09-19T12:10:32.160Z,26.10
2018-09-19T12:13:00.989Z,26.20
2018-09-19T12:15:29.806Z,26.30
2018-09-19T12:17:58.649Z,26.40
2018-09-19T12:20:27.510Z,26.50
2018-09-19T12:22:56.317Z,26.60
2018-09-19T12:25:25.210Z,26.70
2018-09-19T12:27:53.992Z,26.80
2018-09-19T12:30:22.831Z,26.90
2018-09-19T12:32:51.683Z,27.10
2018-09-19T12:35:20.501Z,27.10
2018-09-19T12:37:49.337Z,27.20
2018-09-19T12:40:18.157Z,27.30
2018-09-19T12:42:47.052Z,27.40
2018-09-19T12:45:15.942Z,27.50
2018-09-19T12:47:44.751Z,27.60
2018-09-19T12:50:13.585Z,27.70
2018-09-19T12:52:42.426Z,27.80
2018-09-19T12:55:11.275Z,27.80
2018-09-19T12:57:40.093Z,27.90
2018-09-19T13:00:08.961Z,28.00
2018-09-19T13:02:37.783Z,28.10
2018-09-19T13:05:06.727Z,28.20
2018-09-19T13:07:35.540Z,28.30
2018-09-19T13:10:04.377Z,28.40
2018-09-19T13:12:33.194Z,28.50
2018-09-19T13:15:02.026Z,28.60
2018-09-19T13:17:30.846Z,28.70
2018-09-19T13:19:59.705Z,28.80
2018-09-19T13:22:28.485Z,28.90
2018-09-19T13:24:57.293Z,29.00
2018-09-19T13:27:26.063Z,29.10
2018-09-19T13:29:54.969Z,29.10
2018-09-19T13:32:23.796Z,29.10
2018-09-19T13:34:52.837Z,29.20
2018-09-19T13:37:21.647Z,29.20
2018-09-19T13:39:50.498Z,29.20
2018-09-19T13:42:19.549Z,29.20
2018-09-19T13:44:48.395Z,29.20
2018-09-19T13:47:17.242Z,29.20
2018-09-19T13:49:49.688Z,29.30
2018-09-19T13:52:18.519Z,29.30
2018-09-19T13:54:47.354Z,29.30
2018-09-19T13:57:16.189Z,29.30
2018-09-19T13:59:45.002Z,29.30
2018-09-19T14:02:13.828Z,29.30
2018-09-19T14:05:54.639Z,29.30
2018-09-19T14:08:23.545Z,29.30
2018-09-19T14:10:52.363Z,29.30
2018-09-19T14:13:21.270Z,29.30
2018-09-19T14:15:50.093Z,29.30
2018-09-19T14:18:18.967Z,29.30
2018-09-19T14:20:47.882Z,29.30
2018-09-19T14:23:16.705Z,29.30
2018-09-19T14:25:45.589Z,29.30
2018-09-19T14:28:14.644Z,29.30
2018-09-19T14:30:43.529Z,29.30
2018-09-19T14:33:12.500Z,29.30
2018-09-19T14:35:41.357Z,29.30
2018-09-19T14:38:10.413Z,29.30
2018-09-19T14:40:39.251Z,29.30
2018-09-19T14:43:08.128Z,29.30
2018-09-19T14:45:36.992Z,29.30
2018-09-19T14:48:12.400Z,29.30
2018-09-19T14:50:41.310Z,29.30
2018-09-19T14:53:10.157Z,29.30
2018-09-19T14:55:38.968Z,29.30
2018-09-19T14:58:07.933Z,29.30
2018-09-19T15:00:36.838Z,29.30
2018-09-19T15:03:05.982Z,29.40
2018-09-19T15:05:34.865Z,29.30
2018-09-19T15:08:03.723Z,29.30
2018-09-19T15:10:32.570Z,29.20
2018-09-19T15:13:01.497Z,29.20
2018-09-19T15:15:30.479Z,29.10
2018-09-19T15:17:59.370Z,29.00
2018-09-19T15:20:28.206Z,29.00
2018-09-19T15:22:56.977Z,28.90
2018-09-19T15:25:25.895Z,28.90
2018-09-19T15:27:54.857Z,28.80
2018-09-19T15:30:23.692Z,28.80
2018-09-19T15:32:52.537Z,28.70
2018-09-19T15:35:21.384Z,28.60
2018-09-19T15:37:50.174Z,28.40
2018-09-19T15:40:19.068Z,28.10
2018-09-19T15:42:47.955Z,27.80
2018-09-19T15:45:16.903Z,27.80
2018-09-19T15:47:45.778Z,27.60
2018-09-19T15:50:14.660Z,27.50
2018-09-19T15:52:43.510Z,27.40
2018-09-19T15:55:12.365Z,27.30
2018-09-19T15:57:41.223Z,27.20
2018-09-19T16:00:10.141Z,27.10
2018-09-19T16:02:38.965Z,27.00
2018-09-19T16:05:07.857Z,26.90
2018-09-19T16:07:36.787Z,26.90
2018-09-19T16:10:05.736Z,26.80
2018-09-19T16:12:34.582Z,26.70
2018-09-19T16:15:03.477Z,26.70
2018-09-19T16:17:32.318Z,26.60
2018-09-19T16:20:01.133Z,26.60
2018-09-19T16:22:29.960Z,26.50
2018-09-19T16:24:58.768Z,26.50
2018-09-19T16:27:27.567Z,26.40
2018-09-19T16:29:56.443Z,26.40
2018-09-19T16:32:25.327Z,26.30
2018-09-19T16:34:54.137Z,26.20
2018-09-19T16:37:22.978Z,26.20
2018-09-19T16:39:51.782Z,26.10
2018-09-19T16:42:20.600Z,26.10
2018-09-19T16:44:49.447Z,26.00
2018-09-19T16:47:18.312Z,25.90
2018-09-19T16:49:47.137Z,25.90
2018-09-19T16:52:16.029Z,25.80
2018-09-19T16:54:44.885Z,25.80
2018-09-19T16:57:13.715Z,25.70
2018-09-19T16:59:42.606Z,25.60
2018-09-19T17:02:11.554Z,25.60
2018-09-19T17:04:40.421Z,25.50
2018-09-19T17:07:09.666Z,25.50
2018-09-19T17:09:38.508Z,25.40
2018-09-19T17:12:07.387Z,25.40
2018-09-19T17:14:36.254Z,25.40
2018-09-19T17:17:05.425Z,25.30
2018-09-19T17:19:34.331Z,25.20
2018-09-19T17:22:03.959Z,25.20
2018-09-19T17:24:32.838Z,25.10
2018-09-19T17:27:01.692Z,25.00
2018-09-19T17:29:30.560Z,24.90
2018-09-19T17:31:59.640Z,24.90
2018-09-19T17:34:28.495Z,24.80
2018-09-19T17:36:57.328Z,24.80
2018-09-19T17:39:29.197Z,24.70
2018-09-19T17:41:58.076Z,24.70
2018-09-19T17:44:26.967Z,24.60
2018-09-19T17:46:55.855Z,24.60
2018-09-19T17:49:24.688Z,24.60
2018-09-19T17:51:53.607Z,24.60
2018-09-19T17:54:22.464Z,24.50
2018-09-19T17:56:51.344Z,24.50
2018-09-19T17:59:20.265Z,24.40
2018-09-19T18:01:49.157Z,24.30
2018-09-19T18:04:18.056Z,24.30
2018-09-19T18:06:46.871Z,24.20
2018-09-19T18:09:15.801Z,24.20
2018-09-19T18:11:44.597Z,24.20
2018-09-19T18:14:13.477Z,24.20
2018-09-19T18:16:43.000Z,24.20
2018-09-19T18:19:11.833Z,24.20
2018-09-19T18:21:40.735Z,24.10
2018-09-19T18:24:09.587Z,24.00
2018-09-19T18:26:38.397Z,23.90
2018-09-19T18:29:07.232Z,23.90
2018-09-19T18:31:36.091Z,23.90
2018-09-19T18:34:04.969Z,23.80
2018-09-19T18:36:33.834Z,23.70
2018-09-19T18:39:02.735Z,23.70
2018-09-19T18:41:31.544Z,23.70
2018-09-19T18:44:00.457Z,23.70
2018-09-19T18:46:29.261Z,23.60
2018-09-19T18:48:58.145Z,23.60
2018-09-19T18:51:27.262Z,23.50
2018-09-19T18:53:56.095Z,23.50
2018-09-19T18:56:24.930Z,23.40
2018-09-19T18:58:53.797Z,23.40
2018-09-19T19:01:22.687Z,23.40
2018-09-19T19:03:51.674Z,23.40
2018-09-19T19:06:20.576Z,23.40
2018-09-19T19:08:49.523Z,23.30
2018-09-19T19:11:18.451Z,23.20
2018-09-19T19:13:47.277Z,23.10
2018-09-19T19:16:16.434Z,23.10
2018-09-19T19:18:45.364Z,23.10
2018-09-19T19:21:14.236Z,23.10
2018-09-19T19:23:43.145Z,23.00
2018-09-19T19:26:12.010Z,23.00
2018-09-19T19:28:40.882Z,23.00
2018-09-19T19:31:09.730Z,23.00
2018-09-19T19:33:38.549Z,22.90
2018-09-19T19:36:07.499Z,22.90
2018-09-19T19:38:36.302Z,22.90
2018-09-19T19:41:05.150Z,22.90
2018-09-19T19:43:33.976Z,22.80
2018-09-19T19:46:02.793Z,22.80
2018-09-19T19:48:31.624Z,22.70
2018-09-19T19:51:00.475Z,22.70
2018-09-19T19:53:29.286Z,22.70
2018-09-19T19:55:58.099Z,22.70
2018-09-19T19:58:26.940Z,22.60
2018-09-19T20:00:55.779Z,22.60
2018-09-19T20:03:24.648Z,22.60
2018-09-19T20:05:53.474Z,22.50
2018-09-19T20:08:22.301Z,22.50
2018-09-19T20:10:51.149Z,22.50
2018-09-19T20:13:20.013Z,22.40
2018-09-19T20:15:48.818Z,22.20
2018-09-19T20:18:17.641Z,22.10
2018-09-19T20:20:46.467Z,22.10
2018-09-19T20:23:15.309Z,22.00
2018-09-19T20:25:44.144Z,22.00
2018-09-19T20:28:12.928Z,22.00
2018-09-19T20:30:41.739Z,21.80
2018-09-19T20:33:10.540Z,21.80
2018-09-19T20:35:39.372Z,21.50
2018-09-19T20:38:08.160Z,21.50
2018-09-19T20:40:36.964Z,21.50
2018-09-19T20:43:05.762Z,21.60
2018-09-19T20:45:34.612Z,21.60
2018-09-19T20:48:03.400Z,21.40
2018-09-19T20:50:32.385Z,21.10
2018-09-19T20:53:01.196Z,20.90
2018-09-19T20:55:30.062Z,20.80
2018-09-19T20:57:58.961Z,20.90
2018-09-19T21:00:27.875Z,21.00
2018-09-19T21:02:56.857Z,21.10
2018-09-19T21:05:25.689Z,21.10
2018-09-19T21:07:54.479Z,21.00
2018-09-19T21:10:23.447Z,21.00
2018-09-19T21:12:52.225Z,20.80
2018-09-19T21:15:21.157Z,20.90
2018-09-19T21:17:49.981Z,20.90
2018-09-19T21:20:18.816Z,21.00
2018-09-19T21:22:47.756Z,21.00
2018-09-19T21:25:16.571Z,21.00
2018-09-19T21:27:45.400Z,21.00
2018-09-19T21:30:14.204Z,21.00
2018-09-19T21:32:43.007Z,21.00
2018-09-19T21:35:11.845Z,20.80
2018-09-19T21:37:40.653Z,20.80
2018-09-19T21:40:09.448Z,20.80
2018-09-19T21:42:38.225Z,20.80
2018-09-19T21:45:07.054Z,20.80
2018-09-19T21:47:35.923Z,20.60
2018-09-19T21:50:04.880Z,20.50
2018-09-19T21:52:33.696Z,20.50
2018-09-19T21:55:02.813Z,20.50
2018-09-19T21:57:31.548Z,20.40
2018-09-19T22:00:00.367Z,20.30
2018-09-19T22:02:29.192Z,20.30
2018-09-19T22:04:57.995Z,20.40
2018-09-19T22:07:26.836Z,20.50
2018-09-19T22:09:55.644Z,20.40
2018-09-19T22:12:24.562Z,20.40
2018-09-19T22:14:53.344Z,20.40
2018-09-19T22:17:22.136Z,20.40
2018-09-19T22:19:50.932Z,20.30
2018-09-19T22:22:19.724Z,20.40
2018-09-19T22:24:48.584Z,20.40
2018-09-19T22:27:17.399Z,20.40
2018-09-19T22:29:46.203Z,20.30
2018-09-19T22:32:14.965Z,20.20
2018-09-19T22:34:43.786Z,20.20
2018-09-19T22:37:12.603Z,20.20
2018-09-19T22:39:41.381Z,20.10
2018-09-19T22:42:10.193Z,20.00
2018-09-19T22:44:39.012Z,19.80
2018-09-19T22:47:07.876Z,19.80
2018-09-19T22:49:36.677Z,19.80
2018-09-19T22:52:05.500Z,19.90
2018-09-19T22:54:34.306Z,19.80
2018-09-19T22:57:03.064Z,19.80
2018-09-19T22:59:31.872Z,19.80
2018-09-19T23:02:00.747Z,19.70
2018-09-19T23:04:29.526Z,19.50
2018-09-19T23:06:58.369Z,19.50
2018-09-19T23:09:27.167Z,19.50
2018-09-19T23:11:55.964Z,19.50
2018-09-19T23:14:24.793Z,19.40
2018-09-19T23:16:53.596Z,19.40
2018-09-19T23:19:22.424Z,19.50
2018-09-19T23:21:51.199Z,19.50
2018-09-19T23:24:20.009Z,19.50
2018-09-19T23:26:48.825Z,19.50
2018-09-19T23:29:17.664Z,19.50
2018-09-19T23:31:46.421Z,19.50
2018-09-19T23:34:15.176Z,19.50
2018-09-19T23:36:44.018Z,19.40
2018-09-19T23:39:12.829Z,19.30
2018-09-19T23:41:41.671Z,19.20
2018-09-19T23:44:10.471Z,19.10
2018-09-19T23:46:39.356Z,18.90
2018-09-19T23:49:08.148Z,18.90
2018-09-19T23:51:36.977Z,19.00
2018-09-19T23:54:05.772Z,19.00
2018-09-19T23:56:34.571Z,18.90
2018-09-19T23:59:03.384Z,18.90
